createdAt,value
2019-01-31T00:02:30.978Z,57.93
2019-01-31T00:05:15.390Z,65.80
2019-01-31T00:08:15.726Z,56.77
2019-01-31T00:10:58.896Z,60.47
2019-01-31T00:14:07.968Z,54.20
2019-01-31T00:17:05.607Z,56.63
2019-01-31T00:20:02.620Z,47.70
2019-01-31T00:23:00.188Z,54.50
2019-01-31T00:26:15.421Z,55.50
2019-01-31T00:29:26.178Z,53.47
2019-01-31T00:32:18.451Z,52.47
2019-01-31T00:35:05.453Z,52.30
2019-01-31T00:38:07.407Z,50.20
2019-01-31T00:41:12.530Z,48.23
2019-01-31T00:44:30.146Z,42.63
2019-01-31T00:47:30.005Z,47.73
2019-01-31T00:50:13.243Z,44.03
2019-01-31T00:53:12.528Z,38.73
2019-01-31T00:56:05.530Z,39.77
2019-01-31T00:59:10.014Z,40.37
2019-01-31T01:02:07.917Z,41.50
2019-01-31T01:05:14.580Z,43.27
2019-01-31T01:08:09.702Z,45.93
2019-01-31T01:11:24.912Z,47.07
2019-01-31T01:14:08.613Z,51.80
2019-01-31T01:16:50.998Z,49.37
2019-01-31T01:19:43.402Z,44.77
2019-01-31T01:22:30.824Z,49.60
2019-01-31T01:25:44.359Z,47.00
2019-01-31T01:28:53.765Z,46.90
2019-01-31T01:31:50.412Z,47.23
2019-01-31T01:34:47.192Z,48.67
2019-01-31T01:37:40.005Z,45.53
2019-01-31T01:40:52.596Z,46.70
2019-01-31T01:43:32.590Z,49.80
2019-01-31T01:46:29.925Z,47.13
2019-01-31T01:49:31.261Z,51.40
2019-01-31T01:52:34.533Z,45.70
2019-01-31T01:55:23.468Z,48.20
2019-01-31T01:58:18.601Z,44.60
2019-01-31T02:01:14.867Z,47.33
2019-01-31T02:04:16.053Z,46.03
2019-01-31T02:06:51.816Z,48.47
2019-01-31T02:09:44.863Z,44.03
2019-01-31T02:12:36.963Z,40.03
2019-01-31T02:15:58.044Z,46.20
2019-01-31T02:18:42.891Z,45.37
2019-01-31T02:21:40.816Z,49.17
2019-01-31T02:24:21.557Z,45.57
2019-01-31T02:27:40.421Z,47.10
2019-01-31T02:30:32.542Z,44.67
2019-01-31T02:33:19.788Z,43.57
2019-01-31T02:36:39.162Z,41.63
2019-01-31T02:39:53.149Z,44.60
2019-01-31T02:42:40.191Z,48.23
2019-01-31T02:45:56.917Z,43.27
2019-01-31T02:49:03.817Z,48.37
2019-01-31T02:51:52.748Z,53.73
2019-01-31T02:54:50.218Z,54.53
2019-01-31T02:57:54.972Z,53.67
2019-01-31T03:01:02.502Z,53.27
2019-01-31T03:03:46.909Z,56.77
2019-01-31T03:06:57.296Z,60.67
2019-01-31T03:10:02.326Z,59.80
2019-01-31T03:13:15.161Z,54.13
2019-01-31T03:16:26.410Z,58.40
2019-01-31T03:19:13.465Z,62.20
2019-01-31T03:22:24.743Z,56.17
2019-01-31T03:25:39.093Z,55.47
2019-01-31T03:28:45.875Z,60.53
2019-01-31T03:32:08.341Z,65.30
2019-01-31T03:35:30.910Z,58.30
2019-01-31T03:38:37.540Z,63.87
2019-01-31T03:41:21.223Z,62.37
2019-01-31T03:44:31.956Z,65.03
2019-01-31T03:47:39.555Z,68.03
2019-01-31T03:50:43.381Z,76.73
2019-01-31T03:53:47.518Z,73.73
2019-01-31T03:57:02.284Z,64.90
2019-01-31T03:59:53.678Z,60.17
2019-01-31T04:02:33.117Z,72.50
2019-01-31T04:05:40.139Z,66.57
2019-01-31T04:08:10.820Z,69.67
2019-01-31T04:10:40.720Z,66.87
2019-01-31T04:13:10.235Z,74.83
2019-01-31T04:15:39.816Z,71.90
2019-01-31T04:18:09.628Z,77.27
2019-01-31T04:20:39.285Z,70.00
2019-01-31T04:23:09.300Z,69.33
2019-01-31T04:25:38.811Z,66.73
2019-01-31T04:28:08.477Z,77.50
2019-01-31T04:30:38.009Z,78.77
2019-01-31T04:33:07.545Z,78.10
2019-01-31T04:35:37.089Z,70.00
2019-01-31T04:38:06.684Z,69.83
2019-01-31T04:40:37.204Z,67.50
2019-01-31T04:43:07.023Z,71.87
2019-01-31T04:45:36.536Z,68.40
2019-01-31T04:48:06.077Z,64.97
2019-01-31T04:50:35.652Z,76.30
2019-01-31T04:53:05.580Z,57.80
2019-01-31T04:55:35.097Z,62.60
2019-01-31T04:58:05.078Z,74.10
2019-01-31T05:00:35.021Z,63.83
2019-01-31T05:03:04.946Z,61.93
2019-01-31T05:05:34.455Z,56.13
2019-01-31T05:08:04.003Z,62.03
2019-01-31T05:10:42.625Z,66.87
2019-01-31T05:13:04.769Z,63.33
2019-01-31T05:15:35.079Z,69.50
2019-01-31T05:18:04.579Z,64.90
2019-01-31T05:20:34.113Z,72.93
2019-01-31T05:23:03.697Z,70.73
2019-01-31T05:25:33.250Z,67.23
2019-01-31T05:28:02.822Z,60.30
2019-01-31T05:30:32.336Z,69.90
2019-01-31T05:33:02.217Z,67.00
2019-01-31T05:35:32.084Z,68.47
2019-01-31T05:38:01.631Z,69.17
2019-01-31T05:40:31.138Z,59.20
2019-01-31T05:43:01.205Z,64.70
2019-01-31T05:45:30.773Z,64.20
2019-01-31T05:48:00.291Z,76.13
2019-01-31T05:50:29.857Z,72.33
2019-01-31T05:52:59.376Z,72.93
2019-01-31T05:55:29.007Z,74.97
2019-01-31T05:57:58.829Z,73.70
2019-01-31T06:00:31.612Z,66.00
2019-01-31T06:03:01.111Z,79.27
2019-01-31T06:05:30.608Z,75.47
2019-01-31T06:08:00.341Z,77.57
2019-01-31T06:10:29.895Z,87.77
2019-01-31T06:12:59.627Z,80.27
2019-01-31T06:15:29.212Z,73.97
2019-01-31T06:17:58.757Z,85.23
2019-01-31T06:20:28.274Z,85.13
2019-01-31T06:22:57.792Z,76.80
2019-01-31T06:25:27.372Z,71.60
2019-01-31T06:27:56.901Z,81.00
2019-01-31T06:30:26.810Z,82.40
2019-01-31T06:32:56.383Z,76.07
2019-01-31T06:35:26.515Z,77.83
2019-01-31T06:37:56.070Z,89.00
2019-01-31T06:40:25.576Z,84.57
2019-01-31T06:42:55.371Z,83.73
2019-01-31T06:45:25.272Z,85.03
2019-01-31T06:47:54.903Z,80.03
2019-01-31T06:50:24.503Z,83.17
2019-01-31T06:52:54.072Z,80.03
2019-01-31T06:55:23.644Z,81.80
2019-01-31T06:57:53.169Z,78.97
2019-01-31T07:00:23.646Z,96.80
2019-01-31T07:02:53.155Z,91.20
2019-01-31T07:05:22.668Z,72.27
2019-01-31T07:07:52.210Z,85.53
2019-01-31T07:10:24.185Z,91.63
2019-01-31T07:12:54.023Z,92.60
2019-01-31T07:15:23.555Z,80.53
2019-01-31T07:17:53.493Z,85.50
2019-01-31T07:20:23.004Z,92.77
2019-01-31T07:22:52.844Z,90.00
2019-01-31T07:25:24.233Z,92.40
2019-01-31T07:27:53.796Z,81.80
2019-01-31T07:30:26.370Z,75.13
2019-01-31T07:32:57.740Z,79.73
2019-01-31T07:35:27.258Z,81.27
2019-01-31T07:37:56.822Z,81.43
2019-01-31T07:40:26.411Z,80.47
2019-01-31T07:42:55.935Z,84.13
2019-01-31T07:45:30.120Z,85.73
2019-01-31T07:47:59.649Z,69.63
2019-01-31T07:50:29.754Z,82.53
2019-01-31T07:52:59.247Z,81.43
2019-01-31T07:55:29.203Z,85.30
2019-01-31T07:57:59.339Z,78.17
2019-01-31T08:00:28.990Z,81.23
2019-01-31T08:02:59.044Z,85.67
2019-01-31T08:05:34.071Z,94.20
2019-01-31T08:08:03.833Z,88.00
2019-01-31T08:10:36.313Z,84.17
2019-01-31T08:13:05.969Z,90.23
2019-01-31T08:15:35.748Z,84.40
2019-01-31T08:18:05.620Z,89.93
2019-01-31T08:20:35.247Z,81.50
2019-01-31T08:23:05.348Z,86.50
2019-01-31T08:25:34.934Z,76.93
2019-01-31T08:28:05.913Z,69.00
2019-01-31T08:30:38.175Z,73.73
2019-01-31T08:33:08.343Z,70.70
2019-01-31T08:35:37.890Z,74.83
2019-01-31T08:38:07.426Z,62.27
2019-01-31T08:40:37.068Z,60.77
2019-01-31T08:43:06.657Z,63.27
2019-01-31T08:45:36.194Z,52.20
2019-01-31T08:48:06.044Z,43.80
2019-01-31T08:50:35.693Z,43.40
2019-01-31T08:53:05.496Z,40.83
2019-01-31T08:55:35.090Z,37.00
2019-01-31T08:58:04.591Z,37.33
2019-01-31T09:00:34.132Z,29.17
2019-01-31T09:03:03.689Z,30.63
2019-01-31T09:05:33.236Z,25.63
2019-01-31T09:08:02.787Z,30.23
2019-01-31T09:10:34.698Z,26.43
2019-01-31T09:13:06.649Z,27.87
2019-01-31T09:15:36.196Z,26.70
2019-01-31T09:18:06.672Z,26.47
2019-01-31T09:21:08.960Z,25.53
2019-01-31T09:24:09.724Z,26.73
2019-01-31T09:27:26.467Z,25.20
2019-01-31T09:30:37.273Z,22.33
2019-01-31T09:33:33.922Z,21.50
2019-01-31T09:36:24.824Z,22.80
2019-01-31T09:39:31.065Z,24.77
2019-01-31T09:42:38.758Z,27.97
2019-01-31T09:45:48.611Z,27.93
2019-01-31T09:48:48.111Z,24.03
2019-01-31T09:51:50.731Z,25.90
2019-01-31T09:54:57.609Z,25.20
2019-01-31T09:58:08.956Z,31.93
2019-01-31T10:01:24.628Z,25.77
2019-01-31T10:04:50.586Z,22.90
2019-01-31T10:07:43.543Z,25.30
2019-01-31T10:10:27.468Z,23.57
2019-01-31T10:13:47.196Z,29.10
2019-01-31T10:16:59.218Z,21.53
2019-01-31T10:20:11.410Z,25.43
2019-01-31T10:23:05.910Z,22.27
2019-01-31T10:26:22.170Z,21.10
2019-01-31T10:29:33.769Z,21.17
2019-01-31T10:32:34.675Z,25.80
2019-01-31T10:35:33.782Z,23.17
2019-01-31T10:38:32.504Z,25.47
2019-01-31T10:41:18.845Z,22.70
2019-01-31T10:44:27.897Z,23.47
2019-01-31T10:47:23.878Z,25.87
2019-01-31T10:50:33.244Z,34.27
2019-01-31T10:53:54.956Z,26.83
2019-01-31T10:57:10.894Z,30.77
2019-01-31T11:00:45.549Z,24.90
2019-01-31T11:04:05.599Z,23.10
2019-01-31T11:07:09.541Z,20.80
2019-01-31T11:10:38.300Z,22.00
2019-01-31T11:13:41.580Z,23.00
2019-01-31T11:16:53.723Z,21.30
2019-01-31T11:19:58.074Z,18.77
2019-01-31T11:22:50.803Z,23.00
2019-01-31T11:26:01.052Z,20.30
2019-01-31T11:29:22.949Z,21.83
2019-01-31T11:32:44.737Z,20.53
2019-01-31T11:35:39.820Z,20.20
2019-01-31T11:38:40.474Z,24.83
2019-01-31T11:41:43.746Z,20.23
2019-01-31T11:45:09.045Z,19.80
2019-01-31T11:47:48.093Z,22.73
2019-01-31T11:51:10.056Z,24.10
2019-01-31T11:54:10.596Z,15.80
2019-01-31T11:57:14.297Z,15.90
2019-01-31T11:59:44.208Z,12.90
2019-01-31T12:02:14.368Z,18.43
2019-01-31T12:04:45.150Z,18.00
2019-01-31T12:07:15.025Z,16.53
2019-01-31T12:09:44.576Z,14.20
2019-01-31T12:12:14.827Z,18.87
2019-01-31T12:14:44.848Z,13.67
2019-01-31T12:17:15.085Z,17.07
2019-01-31T12:19:44.771Z,16.10
2019-01-31T12:22:14.419Z,16.97
2019-01-31T12:24:44.139Z,14.50
2019-01-31T12:27:18.022Z,15.70
2019-01-31T12:29:47.575Z,16.07
2019-01-31T12:32:18.592Z,17.30
2019-01-31T12:34:48.507Z,16.93
2019-01-31T12:37:18.434Z,18.23
2019-01-31T12:39:48.405Z,14.97
2019-01-31T12:42:17.921Z,18.47
2019-01-31T12:44:48.111Z,16.07
2019-01-31T12:47:17.682Z,15.93
2019-01-31T12:49:47.922Z,19.43
2019-01-31T12:52:17.459Z,16.20
2019-01-31T12:54:46.990Z,15.10
2019-01-31T12:57:16.668Z,15.70
2019-01-31T12:59:46.189Z,16.03
2019-01-31T13:02:15.850Z,17.67
2019-01-31T13:04:45.321Z,19.20
2019-01-31T13:07:14.841Z,17.73
2019-01-31T13:09:44.668Z,14.90
2019-01-31T13:12:14.736Z,15.40
2019-01-31T13:14:44.259Z,14.90
2019-01-31T13:17:15.303Z,14.50
2019-01-31T13:19:44.863Z,13.20
2019-01-31T13:22:14.699Z,11.20
2019-01-31T13:24:44.512Z,13.03
2019-01-31T13:27:14.019Z,12.30
2019-01-31T13:29:43.616Z,10.13
2019-01-31T13:32:13.232Z,14.27
2019-01-31T13:34:42.819Z,14.20
2019-01-31T13:37:12.381Z,12.90
2019-01-31T13:39:41.914Z,17.67
2019-01-31T13:42:11.480Z,14.83
2019-01-31T13:44:40.984Z,14.20
2019-01-31T13:49:25.312Z,13.10
2019-01-31T13:51:54.934Z,17.57
2019-01-31T13:54:24.393Z,13.30
2019-01-31T13:56:56.162Z,11.50
2019-01-31T13:59:25.761Z,12.60
2019-01-31T14:01:55.289Z,15.97
2019-01-31T14:04:25.027Z,18.90
2019-01-31T14:06:54.955Z,13.47
2019-01-31T14:09:24.468Z,15.20
2019-01-31T14:11:54.393Z,14.03
2019-01-31T14:14:23.967Z,15.47
2019-01-31T14:16:53.587Z,12.03
2019-01-31T14:19:23.218Z,15.80
2019-01-31T14:21:53.066Z,14.73
2019-01-31T14:24:23.489Z,12.87
2019-01-31T14:26:53.297Z,13.90
2019-01-31T14:29:23.502Z,16.83
2019-01-31T14:31:53.454Z,15.57
2019-01-31T14:34:23.165Z,17.17
2019-01-31T14:36:52.796Z,18.17
2019-01-31T14:39:22.642Z,14.47
2019-01-31T14:41:52.272Z,14.27
2019-01-31T14:44:21.876Z,15.07
2019-01-31T14:46:51.423Z,18.73
2019-01-31T14:49:20.999Z,18.13
2019-01-31T14:51:51.260Z,19.47
2019-01-31T14:54:20.964Z,16.17
2019-01-31T14:56:50.776Z,18.27
2019-01-31T14:59:20.340Z,16.70
2019-01-31T15:01:49.950Z,18.03
2019-01-31T15:04:19.799Z,18.50
2019-01-31T15:06:49.372Z,14.80
2019-01-31T15:09:18.882Z,16.97
2019-01-31T15:11:48.376Z,18.33
2019-01-31T15:14:17.900Z,19.83
2019-01-31T15:16:47.357Z,18.93
2019-01-31T15:19:17.125Z,18.40
2019-01-31T15:21:46.594Z,18.77
2019-01-31T15:24:16.380Z,25.00
2019-01-31T15:26:45.902Z,22.67
2019-01-31T15:29:15.813Z,19.57
2019-01-31T15:31:45.320Z,20.27
2019-01-31T15:34:15.042Z,19.43
2019-01-31T15:36:44.584Z,18.10
2019-01-31T15:39:14.110Z,21.83
2019-01-31T15:41:43.770Z,21.40
2019-01-31T15:44:13.260Z,21.60
2019-01-31T15:46:42.780Z,20.83
2019-01-31T15:49:12.292Z,20.23
2019-01-31T15:51:41.824Z,19.53
2019-01-31T15:54:11.866Z,19.97
2019-01-31T15:56:41.950Z,22.17
2019-01-31T15:59:11.568Z,21.20
2019-01-31T16:01:41.490Z,20.97
2019-01-31T16:04:10.975Z,24.17
2019-01-31T16:06:40.615Z,22.60
2019-01-31T16:09:11.113Z,26.30
2019-01-31T16:11:40.633Z,23.97
2019-01-31T16:14:10.223Z,22.60
2019-01-31T16:16:39.671Z,21.43
2019-01-31T16:19:09.175Z,22.63
2019-01-31T16:21:38.774Z,19.27
2019-01-31T16:24:08.421Z,22.40
2019-01-31T16:26:37.962Z,22.77
2019-01-31T16:29:07.476Z,25.07
2019-01-31T16:31:56.064Z,24.87
2019-01-31T16:34:25.930Z,21.67
2019-01-31T16:36:55.458Z,24.63
2019-01-31T16:39:24.995Z,24.30
2019-01-31T16:41:54.698Z,19.77
2019-01-31T16:44:24.576Z,19.27
2019-01-31T16:46:54.371Z,21.53
2019-01-31T16:49:23.843Z,22.10
2019-01-31T16:51:53.696Z,22.63
2019-01-31T16:54:23.231Z,25.10
2019-01-31T16:56:53.842Z,22.83
2019-01-31T16:59:23.678Z,24.63
2019-01-31T17:01:53.584Z,22.53
2019-01-31T17:04:24.875Z,22.80
2019-01-31T17:06:55.170Z,25.30
2019-01-31T17:09:25.442Z,22.97
2019-01-31T17:11:55.364Z,21.57
2019-01-31T17:14:25.329Z,22.50
2019-01-31T17:16:55.104Z,25.97
2019-01-31T17:19:24.656Z,25.30
2019-01-31T17:21:54.119Z,23.90
2019-01-31T17:24:23.672Z,27.97
2019-01-31T17:26:53.188Z,25.40
2019-01-31T17:29:22.799Z,25.93
2019-01-31T17:31:52.334Z,25.27
2019-01-31T17:34:21.838Z,25.57
2019-01-31T17:36:51.373Z,28.80
2019-01-31T17:39:20.874Z,30.23
2019-01-31T17:41:50.744Z,30.97
2019-01-31T17:44:20.255Z,43.27
2019-01-31T17:46:49.943Z,31.13
2019-01-31T17:49:19.448Z,33.73
2019-01-31T17:51:49.313Z,27.37
2019-01-31T17:54:18.804Z,29.70
2019-01-31T17:56:49.210Z,30.30
2019-01-31T17:59:19.007Z,34.00
2019-01-31T18:01:48.543Z,32.07
2019-01-31T18:04:18.372Z,29.00
2019-01-31T18:06:47.942Z,32.63
2019-01-31T18:09:17.398Z,27.80
2019-01-31T18:11:47.277Z,28.63
2019-01-31T18:14:16.818Z,36.00
2019-01-31T18:16:46.344Z,35.97
2019-01-31T18:19:15.894Z,35.20
2019-01-31T18:21:45.405Z,116.50
2019-01-31T18:24:15.416Z,36.93
2019-01-31T18:26:44.939Z,36.27
2019-01-31T18:29:14.833Z,35.60
2019-01-31T18:31:44.405Z,33.27
2019-01-31T18:34:13.944Z,33.37
2019-01-31T18:36:44.242Z,33.50
2019-01-31T18:39:13.780Z,31.10
2019-01-31T18:41:43.348Z,29.60
2019-01-31T18:44:13.184Z,37.87
2019-01-31T18:46:42.697Z,34.90
2019-01-31T18:49:12.175Z,32.33
2019-01-31T18:51:41.709Z,29.03
2019-01-31T18:54:13.034Z,32.27
2019-01-31T18:56:42.583Z,36.23
2019-01-31T18:59:12.072Z,36.87
2019-01-31T19:01:41.679Z,34.30
2019-01-31T19:04:11.525Z,31.23
2019-01-31T19:06:41.437Z,32.23
2019-01-31T19:09:11.344Z,30.50
2019-01-31T19:11:41.632Z,42.77
2019-01-31T19:14:14.263Z,32.53
2019-01-31T19:16:42.708Z,31.20
2019-01-31T19:19:12.604Z,38.13
2019-01-31T19:21:42.099Z,29.30
2019-01-31T19:24:11.647Z,27.93
2019-01-31T19:26:41.159Z,27.50
2019-01-31T19:29:10.681Z,25.70
2019-01-31T19:31:40.586Z,33.90
2019-01-31T19:34:10.253Z,25.03
2019-01-31T19:36:39.791Z,27.97
2019-01-31T19:39:14.331Z,25.87
2019-01-31T19:41:43.849Z,24.67
2019-01-31T19:44:14.228Z,26.30
2019-01-31T19:46:43.771Z,25.43
2019-01-31T19:49:13.669Z,26.97
2019-01-31T19:51:43.192Z,25.60
2019-01-31T19:54:12.796Z,25.63
2019-01-31T19:56:42.777Z,27.23
2019-01-31T19:59:12.699Z,31.73
2019-01-31T20:01:42.226Z,27.80
2019-01-31T20:04:11.840Z,27.70
2019-01-31T20:06:41.307Z,25.07
2019-01-31T20:09:19.231Z,24.23
2019-01-31T20:11:48.747Z,21.97
2019-01-31T20:14:18.247Z,24.80
2019-01-31T20:16:47.804Z,25.97
2019-01-31T20:19:17.640Z,26.77
2019-01-31T20:21:47.753Z,20.93
2019-01-31T20:24:17.274Z,22.37
2019-01-31T20:26:46.805Z,18.47
2019-01-31T20:29:16.630Z,24.20
2019-01-31T20:31:46.160Z,20.83
2019-01-31T20:34:15.690Z,18.30
2019-01-31T20:36:45.256Z,20.87
2019-01-31T20:39:14.741Z,20.50
2019-01-31T20:41:53.923Z,19.40
2019-01-31T20:44:15.731Z,19.50
2019-01-31T20:46:45.354Z,20.27
2019-01-31T20:49:15.273Z,19.93
2019-01-31T20:51:45.616Z,22.73
2019-01-31T20:54:15.108Z,16.00
2019-01-31T20:56:45.038Z,18.60
2019-01-31T20:59:14.819Z,17.77
2019-01-31T21:01:44.371Z,17.80
2019-01-31T21:04:14.211Z,13.93
2019-01-31T21:06:43.816Z,15.60
2019-01-31T21:09:13.416Z,15.60
2019-01-31T21:11:42.985Z,14.97
2019-01-31T21:14:12.513Z,16.43
2019-01-31T21:16:51.377Z,18.60
2019-01-31T21:19:13.521Z,16.27
2019-01-31T21:21:43.049Z,18.10
2019-01-31T21:24:12.557Z,17.33
2019-01-31T21:26:42.500Z,17.70
2019-01-31T21:29:12.056Z,16.47
2019-01-31T21:31:42.102Z,15.70
2019-01-31T21:34:11.599Z,15.30
2019-01-31T21:36:41.294Z,16.80
2019-01-31T21:39:10.807Z,15.00
2019-01-31T21:41:40.721Z,13.27
2019-01-31T21:44:10.570Z,17.70
2019-01-31T21:46:40.129Z,16.60
2019-01-31T21:49:09.662Z,16.37
2019-01-31T21:51:39.628Z,14.63
2019-01-31T21:54:09.245Z,17.90
2019-01-31T21:56:38.744Z,15.30
2019-01-31T21:59:08.973Z,13.03
2019-01-31T22:01:38.667Z,20.20
2019-01-31T22:04:08.208Z,14.07
2019-01-31T22:06:38.117Z,12.00
2019-01-31T22:09:09.813Z,13.57
2019-01-31T22:11:39.304Z,15.90
2019-01-31T22:14:09.245Z,13.90
2019-01-31T22:16:38.793Z,13.67
2019-01-31T22:19:08.344Z,14.03
2019-01-31T22:21:37.868Z,14.00
2019-01-31T22:24:07.420Z,12.73
2019-01-31T22:26:36.953Z,15.50
2019-01-31T22:29:08.302Z,12.37
2019-01-31T22:31:37.659Z,14.33
2019-01-31T22:34:07.210Z,14.43
2019-01-31T22:36:37.243Z,14.33
2019-01-31T22:39:08.874Z,20.60
2019-01-31T22:41:38.836Z,14.43
2019-01-31T22:44:08.343Z,12.33
2019-01-31T22:46:37.869Z,14.40
2019-01-31T22:49:07.379Z,16.90
2019-01-31T22:51:37.572Z,16.80
2019-01-31T22:54:07.459Z,16.87
2019-01-31T22:56:37.525Z,14.50
2019-01-31T22:59:07.367Z,14.83
2019-01-31T23:01:55.285Z,18.03
2019-01-31T23:04:25.212Z,16.60
2019-01-31T23:06:54.851Z,16.60
2019-01-31T23:09:24.365Z,16.80
2019-01-31T23:11:53.974Z,18.30
2019-01-31T23:14:23.496Z,16.30
2019-01-31T23:16:52.993Z,15.43
2019-01-31T23:19:22.536Z,19.37
2019-01-31T23:21:52.065Z,14.00
2019-01-31T23:24:21.612Z,15.47
2019-01-31T23:26:51.165Z,14.37
2019-01-31T23:29:20.694Z,14.43
2019-01-31T23:31:50.217Z,18.60
2019-01-31T23:34:19.769Z,15.97
2019-01-31T23:36:49.728Z,15.90
2019-01-31T23:39:19.283Z,15.40
2019-01-31T23:41:49.281Z,16.67
2019-01-31T23:44:18.813Z,18.40
2019-01-31T23:46:48.387Z,16.13
2019-01-31T23:49:17.893Z,17.50
2019-01-31T23:51:47.445Z,15.63
2019-01-31T23:54:16.972Z,17.27
2019-01-31T23:56:46.518Z,17.13
2019-01-31T23:59:16.049Z,15.90
